createdAt,value
2018-01-20T00:01:23.274Z,34.00
2018-01-20T00:03:49.572Z,33.97
2018-01-20T00:06:15.870Z,32.53
2018-01-20T00:08:42.926Z,32.30
2018-01-20T00:11:21.590Z,38.17
2018-01-20T00:13:47.844Z,35.10
2018-01-20T00:16:14.124Z,34.07
2018-01-20T00:18:40.414Z,33.73
2018-01-20T00:21:07.441Z,34.90
2018-01-20T00:23:33.745Z,36.60
2018-01-20T00:26:06.246Z,33.93
2018-01-20T00:28:32.538Z,32.93
2018-01-20T00:30:58.829Z,32.83
2018-01-20T00:33:25.844Z,31.67
2018-01-20T00:35:52.912Z,31.77
2018-01-20T00:38:19.205Z,28.50
2018-01-20T00:40:45.502Z,29.33
2018-01-20T00:43:11.792Z,30.13
2018-01-20T00:45:38.091Z,30.67
2018-01-20T00:48:04.431Z,30.57
2018-01-20T00:50:30.736Z,27.90
2018-01-20T00:52:57.029Z,27.40
2018-01-20T00:55:23.304Z,30.70
2018-01-20T00:57:49.576Z,27.90
2018-01-20T01:00:16.017Z,27.77
2018-01-20T01:02:43.061Z,27.97
2018-01-20T01:05:09.343Z,30.67
2018-01-20T01:07:35.629Z,27.50
2018-01-20T01:10:02.705Z,31.80
2018-01-20T01:12:29.023Z,27.93
2018-01-20T01:14:56.077Z,28.20
2018-01-20T01:17:22.380Z,28.73
2018-01-20T01:19:49.436Z,28.57
2018-01-20T01:22:16.464Z,28.30
2018-01-20T01:24:42.730Z,27.30
2018-01-20T01:27:09.039Z,27.37
2018-01-20T01:29:36.066Z,29.83
2018-01-20T01:32:02.396Z,27.77
2018-01-20T01:34:28.681Z,26.47
2018-01-20T01:36:54.998Z,26.00
2018-01-20T01:39:21.292Z,26.60
2018-01-20T01:41:47.592Z,27.33
2018-01-20T01:44:13.872Z,26.10
2018-01-20T01:46:40.193Z,23.50
2018-01-20T01:49:07.234Z,28.80
2018-01-20T01:51:34.289Z,25.47
2018-01-20T01:54:01.316Z,28.50
2018-01-20T01:56:28.363Z,30.20
2018-01-20T01:58:54.660Z,27.10
2018-01-20T02:01:20.949Z,25.07
2018-01-20T02:03:47.983Z,27.60
2018-01-20T02:06:15.008Z,28.07
2018-01-20T02:08:41.272Z,27.30
2018-01-20T02:11:07.652Z,26.90
2018-01-20T02:13:33.961Z,24.40
2018-01-20T02:16:00.254Z,26.70
2018-01-20T02:18:27.271Z,22.33
2018-01-20T02:20:53.552Z,25.37
2018-01-20T02:23:19.853Z,23.90
2018-01-20T02:25:46.911Z,26.33
2018-01-20T02:28:13.941Z,27.80
2018-01-20T02:30:40.971Z,24.53
2018-01-20T02:33:07.258Z,23.43
2018-01-20T02:35:33.556Z,25.60
2018-01-20T02:38:00.596Z,23.30
2018-01-20T02:40:27.639Z,25.33
2018-01-20T02:42:54.686Z,27.77
2018-01-20T02:45:20.967Z,23.33
2018-01-20T02:47:47.262Z,24.70
2018-01-20T02:50:13.561Z,27.00
2018-01-20T02:52:39.863Z,23.93
2018-01-20T02:55:06.141Z,25.17
2018-01-20T02:57:33.205Z,25.63
2018-01-20T02:59:59.537Z,24.83
2018-01-20T03:02:26.546Z,24.13
2018-01-20T03:04:52.844Z,24.40
2018-01-20T03:07:19.448Z,24.90
2018-01-20T03:09:46.476Z,28.17
2018-01-20T03:12:12.819Z,25.93
2018-01-20T03:14:39.857Z,25.47
2018-01-20T03:17:06.885Z,25.90
2018-01-20T03:19:33.228Z,28.93
2018-01-20T03:21:59.695Z,28.63
2018-01-20T03:24:26.005Z,26.27
2018-01-20T03:26:53.048Z,27.40
2018-01-20T03:29:20.241Z,27.20
2018-01-20T03:31:46.534Z,28.50
2018-01-20T03:34:13.572Z,31.13
2018-01-20T03:36:40.602Z,30.27
2018-01-20T03:39:07.675Z,30.53
2018-01-20T03:41:34.711Z,32.40
2018-01-20T03:44:01.735Z,32.00
2018-01-20T03:46:28.040Z,32.00
2018-01-20T03:48:54.326Z,31.10
2018-01-20T03:51:21.361Z,30.30
2018-01-20T03:53:48.385Z,34.40
2018-01-20T03:56:14.688Z,31.70
2018-01-20T03:58:40.970Z,31.83
2018-01-20T04:01:08.011Z,28.10
2018-01-20T04:03:35.083Z,28.50
2018-01-20T04:06:01.393Z,30.00
2018-01-20T04:08:28.430Z,26.60
2018-01-20T04:10:55.472Z,29.07
2018-01-20T04:13:21.743Z,27.20
2018-01-20T04:15:48.032Z,29.13
2018-01-20T04:18:14.338Z,27.17
2018-01-20T04:20:40.667Z,30.77
2018-01-20T04:23:06.931Z,30.70
2018-01-20T04:25:33.248Z,28.50
2018-01-20T04:28:00.297Z,31.37
2018-01-20T04:30:26.593Z,28.63
2018-01-20T04:32:52.892Z,30.27
2018-01-20T04:35:19.923Z,28.10
2018-01-20T04:37:46.962Z,28.00
2018-01-20T04:40:13.254Z,30.20
2018-01-20T04:42:39.555Z,32.10
2018-01-20T04:45:05.871Z,34.43
2018-01-20T04:47:32.908Z,31.83
2018-01-20T04:49:59.957Z,37.43
2018-01-20T04:52:27.002Z,32.27
2018-01-20T04:54:54.057Z,34.53
2018-01-20T04:57:20.360Z,33.57
2018-01-20T04:59:46.635Z,32.07
2018-01-20T05:02:12.920Z,31.00
2018-01-20T05:04:39.197Z,32.67
2018-01-20T05:07:05.504Z,33.83
2018-01-20T05:09:32.561Z,35.30
2018-01-20T05:11:58.852Z,34.13
2018-01-20T05:14:25.135Z,35.80
2018-01-20T05:16:51.444Z,30.53
2018-01-20T05:19:18.459Z,34.07
2018-01-20T05:21:44.761Z,31.73
2018-01-20T05:24:11.057Z,31.97
2018-01-20T05:26:37.320Z,36.13
2018-01-20T05:29:03.601Z,34.37
2018-01-20T05:31:30.616Z,37.23
2018-01-20T05:33:56.904Z,36.23
2018-01-20T05:36:23.178Z,34.00
2018-01-20T05:38:49.482Z,33.30
2018-01-20T05:41:15.764Z,35.00
2018-01-20T05:43:42.788Z,34.27
2018-01-20T05:46:09.075Z,32.17
2018-01-20T05:48:35.388Z,31.93
2018-01-20T05:51:01.681Z,35.23
2018-01-20T05:53:28.745Z,36.07
2018-01-20T05:55:55.768Z,36.83
2018-01-20T05:58:22.066Z,33.60
2018-01-20T06:00:48.368Z,34.90
2018-01-20T06:03:14.664Z,34.53
2018-01-20T06:05:40.943Z,36.60
2018-01-20T06:08:07.266Z,35.47
2018-01-20T06:10:33.593Z,36.97
2018-01-20T06:12:59.883Z,35.17
2018-01-20T06:15:26.178Z,35.90
2018-01-20T06:17:52.469Z,33.43
2018-01-20T06:20:18.771Z,37.13
2018-01-20T06:22:45.063Z,34.20
2018-01-20T06:25:11.380Z,35.17
2018-01-20T06:27:37.657Z,46.17
2018-01-20T06:30:03.955Z,43.97
2018-01-20T06:32:30.234Z,45.10
2018-01-20T06:34:57.281Z,42.43
2018-01-20T06:37:24.306Z,40.57
2018-01-20T06:39:50.602Z,42.77
2018-01-20T06:42:16.896Z,44.80
2018-01-20T06:44:43.191Z,41.27
2018-01-20T06:47:09.481Z,44.67
2018-01-20T06:49:35.780Z,45.23
2018-01-20T06:52:02.825Z,48.03
2018-01-20T06:54:29.872Z,44.30
2018-01-20T06:56:56.926Z,45.00
2018-01-20T06:59:23.240Z,40.63
2018-01-20T07:01:50.333Z,37.93
2018-01-20T07:04:16.617Z,42.33
2018-01-20T07:06:43.658Z,41.03
2018-01-20T07:09:10.704Z,35.30
2018-01-20T07:11:36.989Z,32.67
2018-01-20T07:14:03.268Z,36.07
2018-01-20T07:16:30.339Z,31.37
2018-01-20T07:18:56.639Z,36.13
2018-01-20T07:21:22.937Z,39.73
2018-01-20T07:23:49.231Z,38.43
2018-01-20T07:26:15.544Z,39.40
2018-01-20T07:28:42.565Z,37.03
2018-01-20T07:31:08.881Z,35.20
2018-01-20T07:33:35.176Z,37.23
2018-01-20T07:36:01.497Z,38.60
2018-01-20T07:38:27.773Z,37.17
2018-01-20T07:40:54.069Z,35.63
2018-01-20T07:43:20.377Z,32.00
2018-01-20T07:45:47.402Z,33.67
2018-01-20T07:48:13.706Z,33.33
2018-01-20T07:50:40.003Z,35.80
2018-01-20T07:53:06.311Z,33.00
2018-01-20T07:55:33.336Z,31.70
2018-01-20T07:57:59.837Z,30.03
2018-01-20T08:00:26.123Z,30.57
2018-01-20T08:02:53.150Z,32.50
2018-01-20T08:05:20.182Z,29.67
2018-01-20T08:07:47.948Z,28.90
2018-01-20T08:10:14.993Z,31.50
2018-01-20T08:12:41.306Z,29.53
2018-01-20T08:15:07.603Z,30.73
2018-01-20T08:17:33.885Z,30.47
2018-01-20T08:20:00.172Z,28.50
2018-01-20T08:22:26.428Z,29.20
2018-01-20T08:24:52.729Z,29.27
2018-01-20T08:27:19.056Z,33.97
2018-01-20T08:29:45.381Z,32.13
2018-01-20T08:32:11.645Z,28.70
2018-01-20T08:34:37.959Z,39.33
2018-01-20T08:37:04.989Z,32.83
2018-01-20T08:39:31.276Z,28.63
2018-01-20T08:41:57.543Z,27.47
2018-01-20T08:44:23.833Z,35.10
2018-01-20T08:46:50.109Z,28.07
2018-01-20T08:49:16.391Z,31.97
2018-01-20T08:51:43.404Z,31.90
2018-01-20T08:54:09.719Z,33.33
2018-01-20T08:56:36.019Z,31.63
2018-01-20T08:59:03.046Z,30.60
2018-01-20T09:01:30.093Z,34.67
2018-01-20T09:03:56.375Z,32.47
2018-01-20T09:06:22.683Z,33.60
2018-01-20T09:08:49.008Z,37.63
2018-01-20T09:11:15.295Z,33.77
2018-01-20T09:13:41.564Z,36.63
2018-01-20T09:16:08.590Z,34.63
2018-01-20T09:18:35.603Z,34.90
2018-01-20T09:21:01.916Z,31.37
2018-01-20T09:23:28.197Z,28.93
2018-01-20T09:25:55.243Z,35.90
2018-01-20T09:28:22.259Z,33.73
2018-01-20T09:30:48.567Z,33.60
2018-01-20T09:33:14.833Z,36.30
2018-01-20T09:35:41.133Z,32.53
2018-01-20T09:38:07.397Z,37.13
2018-01-20T09:40:33.696Z,31.80
2018-01-20T09:42:59.973Z,32.37
2018-01-20T09:45:27.009Z,38.00
2018-01-20T09:47:53.297Z,33.10
2018-01-20T09:50:19.590Z,36.60
2018-01-20T09:52:45.888Z,35.80
2018-01-20T09:55:12.217Z,36.03
2018-01-20T09:57:38.493Z,33.00
2018-01-20T10:00:04.787Z,29.13
2018-01-20T10:02:31.881Z,38.20
2018-01-20T10:04:58.158Z,36.60
2018-01-20T10:07:24.651Z,33.53
2018-01-20T10:09:50.945Z,35.73
2018-01-20T10:12:18.006Z,32.93
2018-01-20T10:14:44.305Z,33.03
2018-01-20T10:17:11.528Z,34.53
2018-01-20T10:19:37.804Z,31.20
2018-01-20T10:22:04.836Z,33.30
2018-01-20T10:24:31.431Z,35.47
2018-01-20T10:26:57.732Z,32.87
2018-01-20T10:29:24.166Z,35.00
2018-01-20T10:31:50.470Z,32.50
2018-01-20T10:34:17.674Z,32.30
2018-01-20T10:36:44.311Z,32.93
2018-01-20T10:39:10.612Z,31.23
2018-01-20T10:41:36.904Z,31.90
2018-01-20T10:44:04.004Z,32.00
2018-01-20T10:46:30.346Z,36.33
2018-01-20T10:48:56.623Z,31.80
2018-01-20T10:51:24.220Z,33.17
2018-01-20T10:53:50.530Z,33.97
2018-01-20T10:56:18.026Z,32.20
2018-01-20T10:58:44.561Z,34.50
2018-01-20T11:01:10.891Z,32.63
2018-01-20T11:03:38.079Z,36.33
2018-01-20T11:06:04.351Z,36.40
2018-01-20T11:08:30.660Z,36.47
2018-01-20T11:10:57.672Z,34.93
2018-01-20T11:13:23.982Z,40.23
2018-01-20T11:15:50.259Z,36.37
2018-01-20T11:18:17.288Z,34.43
2018-01-20T11:20:43.695Z,37.47
2018-01-20T11:23:10.105Z,34.77
2018-01-20T11:25:36.428Z,35.70
2018-01-20T11:28:02.768Z,35.53
2018-01-20T11:30:29.073Z,37.50
2018-01-20T11:32:55.377Z,30.60
2018-01-20T11:35:22.409Z,32.77
2018-01-20T11:37:48.709Z,32.03
2018-01-20T11:40:15.054Z,33.60
2018-01-20T11:42:41.324Z,35.10
2018-01-20T11:45:07.658Z,32.60
2018-01-20T11:47:34.685Z,37.57
2018-01-20T11:50:01.734Z,30.03
2018-01-20T11:52:28.849Z,33.90
2018-01-20T11:54:55.196Z,32.97
2018-01-20T11:57:21.721Z,35.87
2018-01-20T11:59:48.785Z,30.27
2018-01-20T12:02:15.093Z,33.87
2018-01-20T12:04:41.419Z,35.50
2018-01-20T12:07:07.699Z,34.30
2018-01-20T12:09:35.071Z,30.50
2018-01-20T12:12:01.378Z,36.20
2018-01-20T12:14:28.454Z,36.27
2018-01-20T12:16:55.719Z,30.47
2018-01-20T12:19:22.087Z,30.60
2018-01-20T12:21:48.380Z,31.40
2018-01-20T12:24:14.707Z,31.13
2018-01-20T12:26:41.019Z,33.30
2018-01-20T12:29:08.195Z,31.30
2018-01-20T12:31:34.564Z,32.67
2018-01-20T12:34:00.886Z,30.53
2018-01-20T12:36:27.602Z,32.17
2018-01-20T12:38:53.957Z,34.93
2018-01-20T12:41:20.322Z,30.30
2018-01-20T12:43:46.675Z,29.00
2018-01-20T12:46:13.021Z,31.97
2018-01-20T12:48:39.398Z,33.70
2018-01-20T12:51:06.525Z,29.60
2018-01-20T12:53:32.843Z,32.07
2018-01-20T12:55:59.124Z,29.77
2018-01-20T12:58:25.416Z,33.70
2018-01-20T13:00:51.712Z,27.07
2018-01-20T13:03:18.009Z,27.77
2018-01-20T13:05:45.056Z,28.23
2018-01-20T13:08:12.199Z,27.37
2018-01-20T13:10:39.409Z,25.80
2018-01-20T13:13:05.694Z,22.67
2018-01-20T13:15:32.736Z,24.23
2018-01-20T13:17:59.757Z,26.60
2018-01-20T13:20:26.827Z,26.03
2018-01-20T13:22:53.912Z,28.57
2018-01-20T13:25:20.200Z,25.53
2018-01-20T13:27:46.513Z,23.20
2018-01-20T13:30:12.848Z,23.60
2018-01-20T13:32:39.165Z,23.80
2018-01-20T13:35:05.453Z,23.90
2018-01-20T13:37:31.767Z,20.17
2018-01-20T13:39:58.060Z,20.00
2018-01-20T13:42:24.470Z,19.63
2018-01-20T13:44:52.276Z,22.43
2018-01-20T13:47:19.325Z,25.27
2018-01-20T13:49:45.626Z,20.43
2018-01-20T13:52:11.930Z,21.57
2018-01-20T13:54:38.222Z,19.73
2018-01-20T13:57:04.533Z,20.67
2018-01-20T13:59:31.574Z,20.10
2018-01-20T14:01:57.874Z,19.60
2018-01-20T14:04:24.148Z,19.03
2018-01-20T14:06:51.189Z,20.97
2018-01-20T14:09:18.217Z,21.00
2018-01-20T14:11:44.494Z,20.50
2018-01-20T14:14:10.796Z,18.30
2018-01-20T14:16:37.811Z,18.57
2018-01-20T14:19:04.092Z,19.60
2018-01-20T14:21:30.374Z,19.80
2018-01-20T14:23:56.682Z,18.00
2018-01-20T14:26:22.985Z,16.57
2018-01-20T14:28:49.295Z,16.13
2018-01-20T14:31:16.308Z,16.23
2018-01-20T14:33:42.641Z,16.97
2018-01-20T14:36:08.925Z,17.90
2018-01-20T14:38:35.206Z,18.17
2018-01-20T14:41:01.499Z,17.10
2018-01-20T14:43:27.793Z,17.13
2018-01-20T14:45:54.817Z,17.40
2018-01-20T14:48:21.105Z,20.70
2018-01-20T14:50:47.380Z,17.93
2018-01-20T14:53:13.712Z,17.77
2018-01-20T14:55:40.056Z,16.20
2018-01-20T14:58:07.108Z,16.47
2018-01-20T15:00:34.150Z,18.13
2018-01-20T15:03:00.460Z,18.00
2018-01-20T15:05:28.244Z,17.10
2018-01-20T15:07:55.251Z,21.43
2018-01-20T15:10:21.547Z,16.37
2018-01-20T15:12:47.836Z,15.20
2018-01-20T15:15:14.152Z,14.83
2018-01-20T15:17:41.271Z,16.93
2018-01-20T15:20:08.385Z,16.57
2018-01-20T15:22:34.704Z,17.13
2018-01-20T15:25:01.751Z,16.83
2018-01-20T15:27:28.789Z,18.07
2018-01-20T15:29:55.865Z,14.90
2018-01-20T15:32:22.148Z,14.10
2018-01-20T15:34:48.468Z,21.00
2018-01-20T15:37:14.741Z,21.60
2018-01-20T15:39:41.756Z,16.27
2018-01-20T15:42:08.061Z,16.23
2018-01-20T15:44:34.341Z,18.10
2018-01-20T15:47:00.672Z,21.43
2018-01-20T15:49:26.981Z,19.67
2018-01-20T15:51:54.044Z,19.23
2018-01-20T15:54:21.122Z,18.63
2018-01-20T15:56:47.420Z,15.23
2018-01-20T15:59:14.460Z,17.03
2018-01-20T16:01:41.505Z,16.23
2018-01-20T16:04:08.534Z,17.97
2018-01-20T16:06:34.866Z,15.03
2018-01-20T16:09:01.988Z,18.30
2018-01-20T16:11:28.301Z,15.73
2018-01-20T16:13:55.345Z,16.23
2018-01-20T16:16:22.370Z,16.57
2018-01-20T16:18:49.402Z,15.50
2018-01-20T16:21:16.459Z,15.80
2018-01-20T16:23:43.506Z,22.40
2018-01-20T16:26:09.772Z,19.30
2018-01-20T16:28:36.069Z,23.87
2018-01-20T16:31:03.117Z,18.80
2018-01-20T16:33:30.178Z,18.73
2018-01-20T16:35:57.217Z,19.40
2018-01-20T16:38:23.862Z,19.13
2018-01-20T16:40:50.161Z,21.23
2018-01-20T16:43:17.358Z,18.63
2018-01-20T16:45:43.690Z,18.57
2018-01-20T16:48:09.989Z,18.57
2018-01-20T16:50:37.065Z,23.10
2018-01-20T16:53:03.369Z,20.17
2018-01-20T16:55:29.680Z,20.47
2018-01-20T16:57:56.008Z,19.90
2018-01-20T17:00:22.308Z,23.57
2018-01-20T17:02:48.608Z,20.60
2018-01-20T17:05:14.892Z,21.10
2018-01-20T17:07:41.175Z,22.43
2018-01-20T17:10:07.463Z,20.30
2018-01-20T17:12:33.740Z,24.80
2018-01-20T17:15:00.037Z,24.23
2018-01-20T17:17:27.063Z,22.33
2018-01-20T17:19:53.350Z,26.93
2018-01-20T17:22:19.706Z,27.90
2018-01-20T17:24:46.003Z,26.77
2018-01-20T17:27:12.268Z,28.27
2018-01-20T17:29:38.609Z,21.13
2018-01-20T17:32:05.626Z,21.93
2018-01-20T17:34:31.929Z,23.00
2018-01-20T17:36:58.190Z,22.37
2018-01-20T17:39:24.472Z,26.60
2018-01-20T17:41:50.795Z,27.60
2018-01-20T17:44:17.873Z,23.07
2018-01-20T17:46:44.162Z,28.93
2018-01-20T17:49:11.235Z,25.73
2018-01-20T17:51:37.512Z,27.97
2018-01-20T17:54:03.816Z,27.57
2018-01-20T17:56:30.099Z,27.80
2018-01-20T17:58:57.117Z,27.37
2018-01-20T18:01:23.416Z,32.77
2018-01-20T18:03:49.701Z,30.03
2018-01-20T18:06:16.752Z,28.80
2018-01-20T18:08:43.082Z,25.63
2018-01-20T18:11:10.159Z,25.53
2018-01-20T18:13:36.509Z,25.43
2018-01-20T18:16:02.809Z,26.93
2018-01-20T18:18:29.084Z,24.10
2018-01-20T18:20:55.371Z,27.57
2018-01-20T18:23:21.655Z,29.23
2018-01-20T18:25:47.992Z,26.33
2018-01-20T18:28:14.383Z,25.20
2018-01-20T18:30:40.717Z,28.83
2018-01-20T18:33:06.976Z,28.60
2018-01-20T18:35:33.378Z,25.10
2018-01-20T18:37:59.747Z,24.30
2018-01-20T18:40:26.087Z,28.10
2018-01-20T18:42:53.158Z,25.43
2018-01-20T18:45:19.520Z,25.33
2018-01-20T18:47:45.814Z,24.53
2018-01-20T18:50:12.157Z,25.73
2018-01-20T18:52:38.489Z,29.03
2018-01-20T18:55:04.819Z,29.20
2018-01-20T18:57:31.099Z,27.93
2018-01-20T18:59:57.359Z,27.00
2018-01-20T19:02:24.396Z,28.80
2018-01-20T19:04:51.455Z,30.97
2018-01-20T19:07:18.514Z,30.10
2018-01-20T19:09:44.792Z,27.50
2018-01-20T19:12:11.417Z,27.43
2018-01-20T19:14:37.798Z,26.97
2018-01-20T19:17:04.256Z,29.33
2018-01-20T19:19:30.592Z,25.23
2018-01-20T19:21:56.947Z,27.73
2018-01-20T19:24:23.212Z,30.30
2018-01-20T19:26:50.309Z,31.73
2018-01-20T19:29:17.439Z,34.30
2018-01-20T19:31:43.781Z,29.17
2018-01-20T19:34:10.174Z,32.23
2018-01-20T19:36:37.251Z,30.20
2018-01-20T19:39:03.636Z,30.17
2018-01-20T19:41:30.465Z,33.07
2018-01-20T19:43:57.153Z,29.70
2018-01-20T19:46:24.452Z,30.10
2018-01-20T19:48:50.748Z,29.00
2018-01-20T19:51:17.283Z,27.80
2018-01-20T19:53:43.584Z,31.50
2018-01-20T19:56:11.266Z,28.70
2018-01-20T19:58:37.641Z,31.90
2018-01-20T20:01:04.099Z,31.93
2018-01-20T20:03:30.477Z,34.57
2018-01-20T20:05:56.828Z,29.03
2018-01-20T20:08:23.460Z,29.83
2018-01-20T20:10:49.792Z,33.70
2018-01-20T20:13:16.128Z,31.03
2018-01-20T20:15:42.472Z,29.27
2018-01-20T20:18:08.910Z,34.30
2018-01-20T20:20:35.269Z,31.20
2018-01-20T20:23:02.350Z,33.63
2018-01-20T20:25:28.790Z,32.97
2018-01-20T20:27:55.183Z,28.70
2018-01-20T20:30:21.676Z,32.77
2018-01-20T20:32:48.149Z,32.10
2018-01-20T20:35:15.597Z,32.63
2018-01-20T20:37:42.174Z,30.07
2018-01-20T20:40:08.976Z,31.50
2018-01-20T20:42:36.296Z,31.20
2018-01-20T20:45:02.879Z,35.60
2018-01-20T20:47:29.447Z,30.90
2018-01-20T20:49:56.014Z,32.67
2018-01-20T20:52:22.453Z,32.10
2018-01-20T20:54:48.973Z,32.97
2018-01-20T20:57:16.049Z,31.33
2018-01-20T20:59:42.335Z,30.10
2018-01-20T21:02:08.865Z,33.83
2018-01-20T21:04:35.191Z,29.53
2018-01-20T21:07:01.633Z,28.70
2018-01-20T21:09:28.084Z,29.47
2018-01-20T21:11:54.713Z,32.47
2018-01-20T21:14:21.384Z,30.87
2018-01-20T21:16:48.609Z,31.57
2018-01-20T21:19:15.668Z,29.93
2018-01-20T21:21:41.973Z,30.87
2018-01-20T21:24:08.521Z,30.33
2018-01-20T21:26:35.165Z,26.50
2018-01-20T21:29:02.112Z,30.23
2018-01-20T21:31:28.706Z,28.00
2018-01-20T21:33:54.985Z,30.03
2018-01-20T21:36:21.460Z,31.43
2018-01-20T21:38:47.784Z,29.60
2018-01-20T21:41:14.807Z,31.03
2018-01-20T21:43:41.160Z,31.63
2018-01-20T21:46:07.498Z,33.30
2018-01-20T21:48:33.806Z,33.57
2018-01-20T21:51:00.870Z,30.37
2018-01-20T21:53:27.960Z,31.27
2018-01-20T21:55:54.291Z,35.03
2018-01-20T21:58:20.709Z,32.30
2018-01-20T22:00:47.226Z,32.40
2018-01-20T22:03:13.553Z,32.80
2018-01-20T22:05:39.861Z,28.80
2018-01-20T22:08:06.479Z,30.50
2018-01-20T22:10:33.601Z,34.87
2018-01-20T22:12:59.943Z,32.67
2018-01-20T22:15:26.426Z,30.83
2018-01-20T22:17:52.713Z,33.57
2018-01-20T22:20:18.971Z,28.67
2018-01-20T22:22:46.005Z,35.57
2018-01-20T22:25:12.332Z,31.40
2018-01-20T22:27:38.658Z,31.77
2018-01-20T22:30:05.120Z,31.67
2018-01-20T22:32:31.420Z,29.77
2018-01-20T22:34:57.725Z,32.73
2018-01-20T22:37:24.546Z,34.63
2018-01-20T22:39:50.953Z,31.40
2018-01-20T22:42:17.273Z,34.03
2018-01-20T22:44:44.403Z,34.13
2018-01-20T22:47:10.737Z,34.10
2018-01-20T22:49:37.085Z,33.50
2018-01-20T22:52:03.538Z,33.63
2018-01-20T22:54:29.844Z,31.70
2018-01-20T22:56:56.904Z,32.53
2018-01-20T22:59:23.935Z,32.60
2018-01-20T23:01:51.122Z,34.43
2018-01-20T23:04:17.444Z,32.73
2018-01-20T23:06:43.767Z,30.67
2018-01-20T23:09:11.026Z,32.73
2018-01-20T23:11:37.597Z,35.90
2018-01-20T23:14:03.923Z,31.87
2018-01-20T23:16:30.462Z,36.23
2018-01-20T23:18:56.808Z,35.60
2018-01-20T23:21:23.127Z,33.90
2018-01-20T23:23:49.439Z,32.20
2018-01-20T23:26:15.744Z,35.57
2018-01-20T23:28:42.800Z,34.07
2018-01-20T23:31:09.088Z,33.40
2018-01-20T23:33:35.384Z,32.37
2018-01-20T23:36:01.664Z,31.30
2018-01-20T23:38:28.743Z,35.03
2018-01-20T23:40:55.033Z,34.47
2018-01-20T23:43:22.086Z,32.87
2018-01-20T23:45:49.121Z,33.07
2018-01-20T23:48:15.428Z,35.93
2018-01-20T23:50:41.756Z,30.93
2018-01-20T23:53:08.032Z,35.60
2018-01-20T23:55:35.045Z,31.90
2018-01-20T23:58:02.098Z,32.70
